This is the latest recevied weather packets stored in our database for station/object HS1WDC-1. If no packets are shown the sender has not sent any weather packets the latest 10 day(s).
| Time | Temp. | Humidity | Pressure | Rain* | Wind** | Luminosity | Snow |
|---|---|---|---|---|---|---|---|
| 1778164963 | 35° C | 52% | 1009 hPa | - | - | 0 W/m² | - |
| 1778164039 | 36.11° C | 50% | 1008 hPa | - | - | 0 W/m² | - |
| 1778161266 | 36.67° C | 48% | 1007 hPa | - | - | 0 W/m² | - |
| 1778160341 | 36.11° C | 50% | 1007 hPa | - | - | 0 W/m² | - |
| 1778159417 | 36.11° C | 52% | 1006 hPa | - | - | 0 W/m² | - |
| 1778157566 | 36.11° C | 50% | 1005 hPa | - | - | 0 W/m² | - |
| 1778156641 | 36.67° C | 51% | 1005 hPa | - | - | 0 W/m² | - |
| 1778155716 | 36.67° C | 49% | 1005 hPa | - | - | 0 W/m² | - |
| 1778154791 | 36.67° C | 48% | 1005 hPa | - | - | 0 W/m² | - |
| 1778153865 | 37.22° C | 47% | 1005 hPa | - | - | 0 W/m² | - |
| 1778152939 | 37.22° C | 47% | 1005 hPa | - | - | 0 W/m² | - |
| 1778152013 | 37.22° C | 45% | 1005 hPa | - | - | 0 W/m² | - |
| 1778151086 | 37.78° C | 44% | 1004 hPa | - | - | 0 W/m² | - |
| 1778150162 | 37.78° C | 44% | 1004 hPa | - | - | 0 W/m² | - |
| 1778149236 | 38.89° C | 41% | 1004 hPa | - | - | 0 W/m² | - |
| 1778148311 | 39.44° C | 40% | 1004 hPa | - | - | 0 W/m² | - |
| 1778146461 | 41.11° C | 39% | 1003 hPa | - | - | 0 W/m² | - |
| 1778145536 | 41.11° C | 39% | 1003 hPa | - | - | 0 W/m² | - |
| 1778144611 | 40.56° C | 40% | 1002 hPa | - | - | 0 W/m² | - |
| 1778143687 | 40.56° C | 42% | 1003 hPa | - | - | 0 W/m² | - |
| 1778142762 | 40.56° C | 42% | 1003 hPa | - | - | 0 W/m² | - |
| 1778141838 | 40.56° C | 42% | 1003 hPa | - | - | 0 W/m² | - |
| 1778140913 | 40.56° C | 40% | 1003 hPa | - | - | 0 W/m² | - |
| 1778139989 | 41.67° C | 38% | 1003 hPa | - | - | 0 W/m² | - |
| 1778139064 | 41.67° C | 38% | 1004 hPa | - | - | 0 W/m² | - |
* Rain since midnight (hover to see other rain measurements)
** Current wind speed in m/s (hover to see current wind gust speed)